KCBE/CBE METAR and TAF weather

Enter ICAO airport designator
Station Type Date Time Source
KCBE METAR 2022/08/13 12:30 UTC NOAA

KCBE 131230Z AUTO 00000KT 10SM CLR 16/11 A3025 RMK AO2 T01550113


Station Type Date Time Source
KCBE Decoded METAR 2022/08/13 12:30 UTC NOAA

Cumberland, Greater Cumberland Regional Airport, MD, United States (KCBE) 39-36-55N 078-45-39W
Aug 13, 2022 - 08:30 AM EDT / 2022.08.13 1230 UTC
Wind: Calm:0
Visibility: 10 mile(s):0
Sky conditions: clear
Temperature: 59.9 F (15.5 C)
Dew Point: 52.3 F (11.3 C)
Relative Humidity: 76%
Pressure (altimeter): 30.25 in. Hg (1024 hPa)
ob: KCBE 131230Z AUTO 00000KT 10SM CLR 16/11 A3025 RMK AO2 T01550113
cycle: 12

Station Type Date Time Source
KCBE TAF UTC NOAA

Error!

Example: see airport list